ADDS METAR Data INFO
IDs: Format: Raw Decoded Include TAF

Data at: 0940 UTC 25 Jun 2018

KGZH 250853Z AUTO 00000KT 6SM BR CLR 23/22 A3005 RMK AO2 SLP170 T02330222 50001
KGZH 250753Z AUTO 00000KT 10SM BKN070 24/22 A3006 RMK AO2 SLP174 T02390222
KGZH 250653Z AUTO 20003KT 9SM CLR 24/23 A3004 RMK AO2 SLP170 T02390228
KGZH 250553Z AUTO 00000KT 10SM CLR 24/23 A3004 RMK AO2 SLP170 60041 T02390228 10294 20239 403440239 58000
KGZH 250453Z AUTO 00000KT 10SM CLR 24/23 A3005 RMK AO2 SLP170 T02390228
KGZH 250353Z AUTO 00000KT 10SM CLR 24/23 A3005 RMK AO2 SLP173 T02440228
KGZH 250253Z AUTO 00000KT 10SM CLR 24/23 A3005 RMK AO2 SLP170 60041 T02440228 53011
KGZH 250153Z AUTO 27003KT 10SM CLR 24/23 A3003 RMK AO2 RAE01 SLP164 P0000 T02440228
KGZH 250107Z AUTO 00000KT 10SM BKN032 BKN050 BKN065 25/23 A3001 RMK AO2 RAE01 P0000 T02500228
KGZH 250053Z AUTO 10SM VCTS -RA FEW040 BKN070 OVC100 25/23 A3001 RMK AO2 PK WND 31027/2356 LTG DSNT S AND SW RAB2356 TSE44 SLP158 P0041 T02500228
KGZH 250050Z AUTO 10SM VCTS -RA BKN060 BKN095 OVC110 25/23 A3001 RMK AO2 PK WND 31027/2356 LTG DSNT S AND SW RAB2356 TSE44 P0041
KGZH 250009Z AUTO 33006G19KT 3SM +TSRA FEW009 BKN039 OVC048 24/21 A3001 RMK AO2 PK WND 31027/2356 LTG DSNT SW AND W RAB2356 P0035 T02440211
KGZH 242357Z AUTO 30016G27KT 1 3/4SM TSRA FEW009 BKN041 OVC049 27/23 A2999 RMK AO2 PK WND 31027/2356 LTG DSNT E AND SW AND W RAB56 P0020 T02720228
KGZH 242353Z AUTO 28008KT 250V310 10SM TS BKN038 BKN046 OVC070 30/25 A2999 RMK AO2 LTG DSNT E AND SW TSB43 SLP151 60005 T03000250 10344 20283 52005
KGZH 242349Z AUTO 26006KT 10SM TS SCT038 BKN046 BKN070 31/25 A2999 RMK AO2 LTG DSNT E AND SW TSB43
KGZH 242337Z AUTO 16004KT 10SM VCTS SCT048 BKN065 32/24 A2998 RMK AO2 T03170244
KGZH 242253Z AUTO 18004KT 10SM BKN048 32/25 A2998 RMK AO2 SLP147 T03170250
KGZH 242153Z AUTO 00000KT 10SM FEW055 33/26 A2998 RMK AO2 RAE06 SLP146 P0000 T03280256
KGZH 242053Z AUTO 33006KT 6SM -RA FEW042 BKN060 OVC100 29/23 A3001 RMK AO2 LTG DSNT S AND W RAB46 SLP158 P0005 60005 T02890233 56013
KGZH 241953Z AUTO 24003KT 10SM FEW047 33/22 A3001 RMK AO2 SLP158 T03330222
KGZH 241853Z AUTO VRB03KT 10SM FEW047 34/23 A3002 RMK AO2 SLP161 T03390228
KGZH 241753Z AUTO 00000KT 10SM SCT039 SCT048 BKN060 32/23 A3005 RMK AO2 SLP171 T03220228 10339 20250 58003
KGZH 241653Z AUTO VRB04KT 10SM SCT038 SCT055 31/23 A3006 RMK AO2 SLP174 T03110228
KGZH 241553Z AUTO 26005KT 10SM FEW029 SCT037 BKN060 32/24 A3006 RMK AO2 SLP175 T03170239
KGZH 241453Z AUTO 25005KT 10SM FEW023 FEW034 30/23 A3006 RMK AO2 SLP174 T03000233 51010
KGZH 241423Z AUTO 23006KT 10SM SCT022 SCT030 BKN038 29/24 A3005 RMK AO2 T02940239
KGZH 241353Z AUTO 23006KT 10SM SCT015 BKN021 29/24 A3005 RMK AO2 SLP171 T02940244
KGZH 241340Z AUTO 25005KT 10SM BKN015 29/24 A3005 RMK AO2 T02890244
KGZH 241253Z AUTO VRB04KT 10SM FEW011 28/24 A3005 RMK AO2 SLP170 T02780244
KGZH 241230Z AUTO 00000KT 10SM SCT002 26/24 A3004 RMK AO2 T02610244
KGZH 241212Z AUTO 20003KT 8SM OVC002 26/24 A3003 RMK AO2 T02560244
KGZH 241205Z AUTO 00000KT 2 1/2SM BR OVC002 25/24 A3003 RMK AO2 T02500239
KGZH 241153Z AUTO 00000KT 3/4SM BR OVC002 25/24 A3003 RMK AO2 SLP164 T02500239 10261 20239 51015
KGZH 241145Z AUTO 00000KT 1 3/4SM BR OVC002 24/24 A3003 RMK AO2 T02440239
KGZH 241125Z AUTO 00000KT 4SM BR BKN002 OVC008 24/23 A3003 RMK AO2 T02440233
KGZH 241120Z AUTO 00000KT 2SM BR SCT002 BKN008 24/23 A3002 RMK AO2 VIS 1V5 T02390228
KGZH 241057Z AUTO 00000KT 1/2SM FG VV009 24/23 A3002 RMK AO2 T02390233
KGZH 241053Z AUTO 00000KT 1SM BR VV013 24/23 A3002 RMK AO2 SLP160 T02440228
KGZH 241050Z AUTO 00000KT 1 1/2SM BR FEW017 24/23 A3002 RMK AO2
KGZH 240953Z AUTO 00000KT 10SM CLR 25/23 A3000 RMK AO2 SLP154 T02500233
KGZH 240853Z AUTO 23003KT 10SM CLR 25/23 A2998 RMK AO2 SLP149 T02500233 53002
KGZH 240753Z AUTO 21003KT 10SM CLR 25/24 A2997 RMK AO2 SLP145 T02500239
KGZH 240653Z AUTO 20004KT 10SM FEW018 26/24 A2997 RMK AO2 SLP146 T02560239
KGZH 240553Z AUTO 19005KT 10SM CLR 26/23 A2998 RMK AO2 SLP147 T02560233 10317 20256 403440239 50008
KGZH 240453Z AUTO 20004KT 10SM CLR 26/23 A2998 RMK AO2 SLP148 T02610233
KGZH 240353Z AUTO 22004KT 10SM CLR 27/24 A2998 RMK AO2 SLP148 T02670239
KGZH 240253Z AUTO 19008KT 10SM CLR 27/24 A2995 RMK AO2 SLP139 T02720239 53014
KGZH 240153Z AUTO 20005KT 10SM CLR 28/24 A2993 RMK AO2 SLP131 T02830239
KGZH 240113Z AUTO 19004KT 10SM FEW003 28/24 A2991 RMK AO2 T02780239
KGZH 240053Z AUTO 20003KT 10SM CLR 29/24 A2992 RMK AO2 SLP127 T02940244
KGZH 232353Z AUTO 20003KT 10SM CLR 31/24 A2991 RMK AO2 SLP125 T03110244 10344 20311 55005
KGZH 232253Z AUTO 19004KT 10SM CLR 33/23 A2990 RMK AO2 SLP120 T03280233
KGZH 232153Z AUTO 21005KT 10SM FEW050 34/23 A2991 RMK AO2 SLP125 T03390228